createdAt,value
2022-07-29T00:02:56.000Z,100196.53
2022-07-29T00:05:58.891Z,100191.19
2022-07-29T00:09:03.353Z,100195.00
2022-07-29T00:12:06.217Z,100195.00
2022-07-29T00:15:12.139Z,100196.81
2022-07-29T00:18:14.801Z,100199.53
2022-07-29T00:21:17.215Z,100191.59
2022-07-29T00:24:20.015Z,100194.31
2022-07-29T00:27:22.887Z,100197.94
2022-07-29T00:30:25.774Z,100196.87
2022-07-29T00:33:28.063Z,100194.09
2022-07-29T00:36:30.839Z,100194.22
2022-07-29T00:39:33.060Z,100204.38
2022-07-29T00:42:48.867Z,100198.22
2022-07-29T00:45:51.109Z,100206.28
2022-07-29T00:48:53.921Z,100203.88
2022-07-29T00:51:56.151Z,100196.56
2022-07-29T00:55:00.952Z,100195.63
2022-07-29T00:58:05.963Z,100195.53
2022-07-29T01:01:08.826Z,100199.31
2022-07-29T01:04:11.178Z,100199.31
2022-07-29T01:07:13.988Z,100196.66
2022-07-29T01:10:16.946Z,100196.56
2022-07-29T01:13:20.251Z,100185.91
2022-07-29T01:16:25.262Z,100187.69
2022-07-29T01:19:40.133Z,100188.66
2022-07-29T01:22:51.190Z,100183.53
2022-07-29T01:26:30.135Z,100188.88
2022-07-29T01:29:55.050Z,100191.50
2022-07-29T01:33:01.222Z,100186.88
2022-07-29T01:36:06.835Z,100182.59
2022-07-29T01:39:15.244Z,100180.91
2022-07-29T01:42:32.799Z,100189.94
2022-07-29T01:45:41.492Z,100182.81
2022-07-29T01:48:54.647Z,100181.25
2022-07-29T01:52:03.355Z,100185.72
2022-07-29T01:55:09.307Z,100184.69
2022-07-29T01:58:13.311Z,100187.44
2022-07-29T02:01:16.927Z,100182.09
2022-07-29T02:04:29.855Z,100178.66
2022-07-29T02:07:33.992Z,100179.59
2022-07-29T02:10:38.220Z,100176.91
2022-07-29T02:13:42.087Z,100179.63
2022-07-29T02:16:45.586Z,100185.19
2022-07-29T02:19:48.593Z,100173.59
2022-07-29T02:22:53.149Z,100178.16
2022-07-29T02:25:59.037Z,100177.28
2022-07-29T02:29:02.430Z,100178.16
2022-07-29T02:32:05.761Z,100171.91
2022-07-29T02:35:10.197Z,100173.53
2022-07-29T02:38:32.727Z,100178.00
2022-07-29T02:41:42.486Z,100177.25
2022-07-29T02:44:44.900Z,100173.81
2022-07-29T02:47:50.618Z,100173.16
2022-07-29T02:50:55.607Z,100174.19
2022-07-29T02:54:00.319Z,100174.19
2022-07-29T02:57:05.407Z,100173.34
2022-07-29T03:00:09.729Z,100175.97
2022-07-29T03:03:13.385Z,100164.47
2022-07-29T03:06:31.100Z,100162.81
2022-07-29T03:09:42.722Z,100176.37
2022-07-29T03:12:46.191Z,100167.50
2022-07-29T03:15:48.865Z,100169.09
2022-07-29T03:18:52.052Z,100171.06
2022-07-29T03:21:56.851Z,100172.91
2022-07-29T03:25:08.098Z,100177.38
2022-07-29T03:28:10.405Z,100171.19
2022-07-29T03:31:13.204Z,100176.53
2022-07-29T03:34:15.895Z,100173.00
2022-07-29T03:37:18.788Z,100177.47
2022-07-29T03:40:24.326Z,100173.09
2022-07-29T03:43:28.905Z,100179.06
2022-07-29T03:46:32.834Z,100173.63
2022-07-29T03:49:37.345Z,100178.09
2022-07-29T03:52:39.663Z,100175.94
2022-07-29T03:55:44.231Z,100188.75
2022-07-29T03:58:46.759Z,100179.81
2022-07-29T04:01:51.196Z,100177.78
2022-07-29T04:04:54.116Z,100190.34
2022-07-29T04:07:56.644Z,100192.31
2022-07-29T04:11:00.904Z,100193.84
2022-07-29T04:14:03.365Z,100191.19
2022-07-29T04:17:06.317Z,100189.41
2022-07-29T04:20:09.169Z,100193.09
2022-07-29T04:23:11.852Z,100192.28
2022-07-29T04:26:14.300Z,100195.75
2022-07-29T04:29:16.880Z,100189.41
2022-07-29T04:32:19.889Z,100186.94
2022-07-29T04:35:22.451Z,100193.22
2022-07-29T04:38:24.923Z,100184.25
2022-07-29T04:41:32.767Z,100189.72
2022-07-29T04:44:39.481Z,100181.78
2022-07-29T04:47:42.326Z,100195.03
2022-07-29T04:50:45.282Z,100195.06
2022-07-29T04:53:47.855Z,100195.03
2022-07-29T04:56:50.288Z,100194.19
2022-07-29T04:59:53.000Z,100194.09
2022-07-29T05:02:55.555Z,100194.69
2022-07-29T05:05:58.269Z,100195.22
2022-07-29T05:09:00.754Z,100201.09
2022-07-29T05:12:03.287Z,100202.66
2022-07-29T05:15:06.048Z,100200.00
2022-07-29T05:18:08.504Z,100202.69
2022-07-29T05:21:10.935Z,100202.47
2022-07-29T05:24:13.814Z,100193.50
2022-07-29T05:27:16.648Z,100201.22
2022-07-29T05:30:19.304Z,100203.91
2022-07-29T05:33:34.243Z,100202.91
2022-07-29T05:36:39.291Z,100199.97
2022-07-29T05:39:47.311Z,100196.94
2022-07-29T05:42:52.878Z,100199.25
2022-07-29T05:45:55.575Z,100204.50
2022-07-29T05:48:58.175Z,100207.97
2022-07-29T05:52:00.713Z,100202.53
2022-07-29T05:55:05.367Z,100206.66
2022-07-29T05:58:07.959Z,100201.75
2022-07-29T06:01:10.496Z,100201.72
2022-07-29T06:04:13.590Z,100206.37
2022-07-29T06:07:17.208Z,100209.66
2022-07-29T06:10:20.186Z,100204.84
2022-07-29T06:13:26.120Z,100205.50
2022-07-29T06:16:30.285Z,100205.22
2022-07-29T06:19:34.828Z,100216.03
2022-07-29T06:22:37.546Z,100209.06
2022-07-29T06:25:41.283Z,100210.81
2022-07-29T06:28:43.957Z,100203.75
2022-07-29T06:31:46.179Z,100207.78
2022-07-29T06:34:49.070Z,100216.22
2022-07-29T06:37:51.949Z,100218.41
2022-07-29T06:41:00.994Z,100213.44
2022-07-29T06:44:03.374Z,100217.44
2022-07-29T06:47:06.195Z,100220.63
2022-07-29T06:50:12.301Z,100221.38
2022-07-29T06:53:15.019Z,100227.25
2022-07-29T06:56:17.333Z,100228.22
2022-07-29T06:59:26.230Z,100223.69
2022-07-29T07:02:33.262Z,100218.59
2022-07-29T07:05:36.046Z,100215.03
2022-07-29T07:09:40.008Z,100217.69
2022-07-29T07:12:43.845Z,100213.72
2022-07-29T07:15:48.800Z,100218.84
2022-07-29T07:18:52.487Z,100215.28
2022-07-29T07:21:55.001Z,100211.28
2022-07-29T07:24:58.623Z,100204.62
2022-07-29T07:28:01.447Z,100201.31
2022-07-29T07:31:04.598Z,100204.28
2022-07-29T07:34:07.092Z,100211.44
2022-07-29T07:37:10.388Z,100200.31
2022-07-29T07:40:14.183Z,100204.59
2022-07-29T07:43:23.954Z,100203.63
2022-07-29T07:46:26.533Z,100206.91
2022-07-29T07:49:29.769Z,100207.56
2022-07-29T07:52:32.348Z,100197.34
2022-07-29T07:56:07.979Z,100201.94
2022-07-29T07:59:03.618Z,100200.91
2022-07-29T08:02:07.201Z,100196.66
2022-07-29T08:05:12.586Z,100196.28
2022-07-29T08:08:15.628Z,100189.94
2022-07-29T08:11:18.385Z,100189.50
2022-07-29T08:14:21.099Z,100182.72
2022-07-29T08:17:23.801Z,100189.66
2022-07-29T08:20:26.735Z,100186.84
2022-07-29T08:23:46.017Z,100193.72
2022-07-29T08:26:51.544Z,100191.16
2022-07-29T08:29:56.774Z,100181.53
2022-07-29T08:32:59.930Z,100188.00
2022-07-29T08:36:03.288Z,100180.38
2022-07-29T08:39:06.802Z,100175.16
2022-07-29T08:42:10.563Z,100181.16
2022-07-29T08:45:13.833Z,100180.28
2022-07-29T08:48:21.265Z,100187.06
2022-07-29T08:51:25.256Z,100179.37
2022-07-29T08:54:28.904Z,100168.47
2022-07-29T08:57:32.306Z,100162.22
2022-07-29T09:00:43.927Z,100173.50
2022-07-29T09:03:48.201Z,100162.56
2022-07-29T09:06:55.437Z,100163.47
2022-07-29T09:09:58.196Z,100171.69
2022-07-29T09:13:00.938Z,100160.97
2022-07-29T09:16:08.943Z,100156.59
2022-07-29T09:19:21.861Z,100156.47
2022-07-29T09:22:38.810Z,100155.31
2022-07-29T09:25:44.302Z,100155.97
2022-07-29T09:28:47.022Z,100146.63
2022-07-29T09:31:52.703Z,100150.53
2022-07-29T09:35:17.403Z,100144.41
2022-07-29T09:38:20.254Z,100140.66
2022-07-29T09:41:23.740Z,100132.88
2022-07-29T09:44:27.006Z,100125.06
2022-07-29T09:47:43.048Z,100114.00
2022-07-29T09:50:49.336Z,100121.56
2022-07-29T09:53:53.051Z,100117.22
2022-07-29T09:56:57.295Z,100112.63
2022-07-29T10:00:08.023Z,100110.31
2022-07-29T10:03:15.588Z,100105.97
2022-07-29T10:06:18.642Z,100114.44
2022-07-29T10:09:22.365Z,100108.66
2022-07-29T10:12:25.491Z,100102.22
2022-07-29T10:15:30.885Z,100105.44
2022-07-29T10:18:34.738Z,100106.56
2022-07-29T10:21:38.820Z,100098.56
2022-07-29T10:24:41.917Z,100097.53
2022-07-29T10:27:46.596Z,100089.47
2022-07-29T10:30:52.456Z,100088.94
2022-07-29T10:34:32.489Z,100086.62
2022-07-29T10:37:58.344Z,100085.59
2022-07-29T10:41:31.954Z,100080.72
2022-07-29T10:44:41.995Z,100081.97
2022-07-29T10:47:44.529Z,100073.81
2022-07-29T10:51:00.008Z,100066.84
2022-07-29T10:54:06.634Z,100072.94
2022-07-29T10:57:54.152Z,100071.72
2022-07-29T11:00:51.296Z,100079.31
2022-07-29T11:03:57.242Z,100068.44
2022-07-29T11:06:59.690Z,100065.84
2022-07-29T11:10:12.856Z,100070.16
2022-07-29T11:13:47.185Z,100051.44
2022-07-29T11:17:06.803Z,100055.19
2022-07-29T11:20:31.979Z,100058.28
2022-07-29T11:23:40.341Z,100059.09
2022-07-29T11:26:46.464Z,100042.28
2022-07-29T11:29:51.071Z,100053.28
2022-07-29T11:32:53.542Z,100053.84
2022-07-29T11:36:10.349Z,100028.75
2022-07-29T11:42:53.061Z,100027.91
2022-07-29T11:45:55.559Z,100028.22
2022-07-29T11:48:59.431Z,100017.69
2022-07-29T11:52:02.956Z,100003.97
2022-07-29T11:55:09.950Z,100014.16
2022-07-29T11:58:30.897Z,100014.94
2022-07-29T12:01:33.794Z,100017.50
2022-07-29T12:04:57.665Z,100006.81
2022-07-29T12:07:01.815Z,100028.25
2022-07-29T12:08:08.056Z,100018.53
2022-07-29T12:11:21.841Z,100006.34
2022-07-29T12:14:32.591Z,100013.44
2022-07-29T12:17:40.399Z,100002.03
2022-07-29T12:20:44.224Z,100004.25
2022-07-29T12:24:01.893Z,99991.03
2022-07-29T12:27:10.136Z,99994.03
2022-07-29T12:30:17.580Z,99980.38
2022-07-29T12:33:22.364Z,99987.63
2022-07-29T12:36:25.460Z,99981.75
2022-07-29T12:39:29.080Z,99974.78
2022-07-29T12:42:32.658Z,99957.41
2022-07-29T12:45:35.173Z,99959.44
2022-07-29T12:48:43.011Z,99958.00
2022-07-29T12:51:45.482Z,99953.50
2022-07-29T12:54:48.557Z,99947.78
2022-07-29T12:57:53.236Z,99939.69
2022-07-29T13:01:17.360Z,99949.88
2022-07-29T13:04:31.830Z,99941.25
2022-07-29T13:07:54.644Z,99942.97
2022-07-29T13:10:59.822Z,99936.66
2022-07-29T13:14:07.059Z,99929.88
2022-07-29T13:17:11.206Z,99919.94
2022-07-29T13:20:15.150Z,99919.09
2022-07-29T13:23:17.680Z,99918.91
2022-07-29T13:26:20.731Z,99915.59
2022-07-29T13:29:23.379Z,99909.78
2022-07-29T13:32:28.999Z,99909.91
2022-07-29T13:35:31.729Z,99906.78
2022-07-29T13:38:35.004Z,99906.59
2022-07-29T13:41:38.422Z,99906.88
2022-07-29T13:44:42.748Z,99901.13
2022-07-29T13:47:49.374Z,99892.25
2022-07-29T13:50:52.687Z,99895.13
2022-07-29T13:53:55.194Z,99891.41
2022-07-29T13:56:58.739Z,99893.81
2022-07-29T14:00:01.318Z,99893.22
2022-07-29T14:03:11.114Z,99871.91
2022-07-29T14:06:14.440Z,99871.22
2022-07-29T14:09:17.752Z,99871.81
2022-07-29T14:12:20.705Z,99867.00
2022-07-29T14:15:24.569Z,99867.56
2022-07-29T14:18:27.439Z,99867.84
2022-07-29T14:21:31.148Z,99866.78
2022-07-29T14:24:37.705Z,99860.28
2022-07-29T14:27:40.414Z,99858.75
2022-07-29T14:30:44.698Z,99857.25
2022-07-29T14:33:49.268Z,99854.81
2022-07-29T14:36:52.198Z,99862.53
2022-07-29T14:39:55.549Z,99855.75
2022-07-29T14:42:58.402Z,99851.22
2022-07-29T14:46:06.504Z,99847.47
2022-07-29T14:49:11.005Z,99839.72
2022-07-29T14:52:13.683Z,99840.47
2022-07-29T14:55:19.713Z,99844.69
2022-07-29T14:58:23.693Z,99826.63
2022-07-29T15:01:26.492Z,99831.00
2022-07-29T15:04:29.669Z,99822.28
2022-07-29T15:07:32.419Z,99822.97
2022-07-29T15:10:35.683Z,99815.31
2022-07-29T15:13:38.528Z,99813.78
2022-07-29T15:16:44.033Z,99823.81
2022-07-29T15:19:49.691Z,99812.94
2022-07-29T15:22:52.434Z,99811.66
2022-07-29T15:25:55.265Z,99811.78
2022-07-29T15:28:57.912Z,99797.28
2022-07-29T15:32:01.118Z,99800.16
2022-07-29T15:35:04.420Z,99805.69
2022-07-29T15:38:07.434Z,99801.94
2022-07-29T15:41:10.165Z,99798.91
2022-07-29T15:44:12.949Z,99792.88
2022-07-29T15:47:15.560Z,99797.06
2022-07-29T15:50:20.121Z,99785.72
2022-07-29T15:53:22.875Z,99792.25
2022-07-29T15:56:25.886Z,99792.88
2022-07-29T15:59:28.756Z,99785.97
2022-07-29T16:02:31.944Z,99784.53
2022-07-29T16:05:34.899Z,99783.69
2022-07-29T16:08:37.352Z,99784.25
2022-07-29T16:11:41.794Z,99770.38
2022-07-29T16:14:44.609Z,99780.91
2022-07-29T16:17:47.786Z,99783.81
2022-07-29T16:20:50.519Z,99784.00
2022-07-29T16:23:53.465Z,99786.38
2022-07-29T16:26:56.945Z,99785.59
2022-07-29T16:30:00.264Z,99773.16
2022-07-29T16:33:08.234Z,99781.03
2022-07-29T16:36:13.206Z,99777.44
2022-07-29T16:39:17.540Z,99777.22
2022-07-29T16:42:36.991Z,99780.41
2022-07-29T16:45:46.491Z,99773.69
2022-07-29T16:48:49.995Z,99774.88
2022-07-29T16:51:53.797Z,99766.66
2022-07-29T16:54:56.942Z,99776.59
2022-07-29T16:58:00.365Z,99773.69
2022-07-29T17:01:06.622Z,99776.47
2022-07-29T17:04:09.316Z,99771.87
2022-07-29T17:07:12.263Z,99771.59
2022-07-29T17:10:14.797Z,99774.38
2022-07-29T17:13:17.805Z,99775.59
2022-07-29T17:16:24.649Z,99774.44
2022-07-29T17:19:33.645Z,99778.13
2022-07-29T17:22:36.987Z,99775.34
2022-07-29T17:25:40.060Z,99776.62
2022-07-29T17:28:42.632Z,99776.72
2022-07-29T17:31:45.663Z,99773.06
2022-07-29T17:34:48.123Z,99782.22
2022-07-29T17:37:51.544Z,99774.31
2022-07-29T17:40:54.062Z,99779.31
2022-07-29T17:43:57.521Z,99776.81
2022-07-29T17:47:01.017Z,99772.44
2022-07-29T17:50:05.347Z,99774.78
2022-07-29T17:53:15.993Z,99774.97
2022-07-29T17:56:19.604Z,99774.97
2022-07-29T17:59:22.205Z,99776.22
2022-07-29T18:02:28.493Z,99777.94
2022-07-29T18:05:31.415Z,99785.38
2022-07-29T18:08:34.134Z,99784.59
2022-07-29T18:11:36.883Z,99785.97
2022-07-29T18:14:41.727Z,99783.00
2022-07-29T18:17:56.823Z,99784.72
2022-07-29T18:21:00.949Z,99795.37
2022-07-29T18:24:03.939Z,99792.00
2022-07-29T18:27:06.804Z,99804.97
2022-07-29T18:30:09.994Z,99799.59
2022-07-29T18:33:21.686Z,99804.94
2022-07-29T18:36:24.828Z,99807.72
2022-07-29T18:39:27.268Z,99803.47
2022-07-29T18:42:29.790Z,99804.16
2022-07-29T18:45:32.755Z,99814.53
2022-07-29T18:48:35.662Z,99816.41
2022-07-29T18:51:38.943Z,99820.44
2022-07-29T18:54:42.444Z,99826.16
2022-07-29T18:57:54.140Z,99842.59
2022-07-29T19:00:59.261Z,99847.87
2022-07-29T19:04:01.937Z,99842.88
2022-07-29T19:07:04.706Z,99852.34
2022-07-29T19:10:08.205Z,99859.09
2022-07-29T19:13:13.427Z,99869.94
2022-07-29T19:16:16.432Z,99863.31
2022-07-29T19:19:19.258Z,99871.00
2022-07-29T19:22:21.971Z,99873.56
2022-07-29T19:25:25.145Z,99879.91
2022-07-29T19:28:27.820Z,99882.00
2022-07-29T19:31:31.059Z,99877.66
2022-07-29T19:34:52.790Z,99882.03
2022-07-29T19:37:57.524Z,99876.94
2022-07-29T19:41:00.604Z,99872.06
2022-07-29T19:44:03.700Z,99870.44
2022-07-29T19:47:06.388Z,99879.78
2022-07-29T19:50:10.176Z,99866.81
2022-07-29T19:53:13.056Z,99860.88
2022-07-29T19:56:15.839Z,99870.50
2022-07-29T19:59:23.975Z,99860.16
2022-07-29T20:02:27.484Z,99867.78
2022-07-29T20:05:31.229Z,99860.97
2022-07-29T20:08:33.820Z,99866.78
2022-07-29T20:11:39.667Z,99866.44
2022-07-29T20:14:42.087Z,99866.81
2022-07-29T20:17:45.207Z,99872.31
2022-07-29T20:20:49.581Z,99869.97
2022-07-29T20:23:53.343Z,99872.66
2022-07-29T20:26:55.776Z,99875.19
2022-07-29T20:29:58.867Z,99891.50
2022-07-29T20:33:01.332Z,99882.06
2022-07-29T20:36:04.934Z,99895.56
2022-07-29T20:39:07.430Z,99889.63
2022-07-29T20:42:10.401Z,99898.78
2022-07-29T20:45:12.701Z,99890.97
2022-07-29T20:48:15.552Z,99891.09
2022-07-29T20:51:17.906Z,99905.78
2022-07-29T20:54:20.651Z,99904.22
2022-07-29T20:57:38.494Z,99902.56
2022-07-29T21:00:42.602Z,99909.94
2022-07-29T21:03:45.116Z,99913.84
2022-07-29T21:06:48.081Z,99915.78
2022-07-29T21:09:51.100Z,99914.00
2022-07-29T21:12:54.432Z,99914.38
2022-07-29T21:16:04.288Z,99921.62
2022-07-29T21:19:09.280Z,99924.91
2022-07-29T21:22:11.829Z,99927.81
2022-07-29T21:25:14.513Z,99927.06
2022-07-29T21:28:50.133Z,99917.56
2022-07-29T21:31:53.590Z,99929.12
2022-07-29T21:34:55.991Z,99922.25
2022-07-29T21:37:58.829Z,99923.53
2022-07-29T21:41:01.565Z,99933.37
2022-07-29T21:44:04.516Z,99930.34
2022-07-29T21:47:07.419Z,99935.78
2022-07-29T21:50:10.289Z,99939.44
2022-07-29T21:53:15.751Z,99948.31
2022-07-29T21:56:18.882Z,99945.88
2022-07-29T21:59:21.319Z,99947.09
2022-07-29T22:02:24.212Z,99954.44
2022-07-29T22:05:28.062Z,99959.03
2022-07-29T22:08:30.680Z,99955.75
2022-07-29T22:11:33.535Z,99965.81
2022-07-29T22:14:36.167Z,99978.47
2022-07-29T22:17:38.864Z,99972.53
2022-07-29T22:20:41.681Z,99972.63
2022-07-29T22:23:44.392Z,99976.25
2022-07-29T22:26:46.893Z,99974.91
2022-07-29T22:29:49.501Z,99973.13
2022-07-29T22:32:52.194Z,99971.00
2022-07-29T22:35:55.372Z,99975.34
2022-07-29T22:38:58.146Z,99980.09
2022-07-29T22:42:01.161Z,99983.81
2022-07-29T22:45:04.336Z,99966.47
2022-07-29T22:48:07.135Z,99973.53
2022-07-29T22:51:09.780Z,99963.75
2022-07-29T22:54:12.902Z,99969.97
2022-07-29T22:57:15.446Z,99963.03
2022-07-29T23:00:18.139Z,99962.34
2022-07-29T23:03:21.662Z,99966.12
2022-07-29T23:06:24.476Z,99962.59
2022-07-29T23:09:27.168Z,99960.88
2022-07-29T23:12:29.883Z,99959.31
2022-07-29T23:15:32.409Z,99958.56
2022-07-29T23:18:35.073Z,99950.47
2022-07-29T23:21:37.708Z,99942.91
2022-07-29T23:24:40.492Z,99943.72
2022-07-29T23:27:43.636Z,99945.53
2022-07-29T23:30:46.548Z,99945.72
2022-07-29T23:33:49.192Z,99933.37
2022-07-29T23:36:51.883Z,99931.81
2022-07-29T23:39:54.367Z,99934.03
2022-07-29T23:42:57.193Z,99927.09
2022-07-29T23:46:00.211Z,99928.78
2022-07-29T23:49:03.364Z,99927.97
2022-07-29T23:52:06.492Z,99916.72
2022-07-29T23:55:36.559Z,99911.38
2022-07-29T23:58:33.635Z,99912.22
